Time;durP1;ratioP1;P1;durP2;ratioP2;P2;SDS_P1;SDS_P2;PMS_P1;PMS_P2;Temp;Humidity;BMP_temperature;BMP_pressure;BME280_temperature;BME280_humidity;BME280_pressure;Samples;Min_cycle;Max_cycle;Signal;HPM_P1;HPM_P2
2022/12/16 00:00:07;;;;;;;;;;;-1.30;90.30;;;;;;5032017;28;19921;-73
2022/12/16 00:02:33;;;;;;;;;;;-1.20;90.40;;;;;;5037907;28;19928;-76
2022/12/16 00:04:58;;;;;;;;;;;-1.20;90.40;;;;;;5034827;28;19921;-76
2022/12/16 00:07:24;;;;;;;;;;;-1.20;90.40;;;;;;5034628;28;19947;-76
2022/12/16 00:09:49;;;;;;;;;;;-1.20;90.40;;;;;;5020393;28;20288;-75
2022/12/16 00:12:15;;;;;;;;;;;-1.20;90.40;;;;;;5029211;28;19968;-74
2022/12/16 00:14:40;;;;;;;;;;;-1.20;90.40;;;;;;5036884;28;19966;-76
2022/12/16 00:17:05;;;;;;;;;;;-1.20;90.40;;;;;;5035507;28;19960;-76
2022/12/16 00:19:31;;;;;;;;;;;-1.20;90.70;;;;;;5036232;28;20399;-76
2022/12/16 00:21:56;;;;;;;;;;;-1.20;90.30;;;;;;5032884;28;19971;-76
2022/12/16 00:24:22;;;;;;;;;;;-1.20;90.30;;;;;;5033227;28;19929;-76
2022/12/16 00:26:47;;;;;;;;;;;-1.20;90.30;;;;;;5035295;28;20566;-76
2022/12/16 00:29:13;;;;;;;;;;;-1.20;90.30;;;;;;5034236;28;19923;-76
2022/12/16 00:31:38;;;;;;;;;;;-1.20;90.30;;;;;;5034799;28;19932;-75
2022/12/16 00:34:04;;;;;;;;;;;-1.20;90.30;;;;;;5034745;28;19983;-76
2022/12/16 00:36:29;;;;;;;;;;;-1.20;90.30;;;;;;5035153;28;19921;-76
2022/12/16 00:38:55;;;;;;;;;;;-1.20;90.30;;;;;;5033585;28;19924;-76
2022/12/16 00:41:20;;;;;;;;;;;-1.20;90.30;;;;;;5032428;28;20418;-76
2022/12/16 00:43:46;;;;;;;;;;;-1.20;90.30;;;;;;5036170;28;20039;-76
2022/12/16 00:46:11;;;;;;;;;;;-1.20;90.30;;;;;;5035357;28;20063;-76
2022/12/16 00:48:37;;;;;;;;;;;-1.20;90.30;;;;;;5034740;28;20469;-76
2022/12/16 00:51:02;;;;;;;;;;;-1.20;90.30;;;;;;5036676;28;19925;-77
2022/12/16 00:53:28;;;;;;;;;;;-1.20;90.30;;;;;;5029758;28;19925;-76
2022/12/16 00:56:03;;;;;;;;;;;-1.30;90.30;;;;;;5022615;28;19916;-76
2022/12/16 00:58:28;;;;;;;;;;;-1.20;90.30;;;;;;5032632;28;20466;-76
2022/12/16 01:00:54;;;;;;;;;;;-1.30;90.30;;;;;;5036621;28;20008;-76
2022/12/16 01:03:19;;;;;;;;;;;-1.30;90.30;;;;;;5029289;28;19929;-76
2022/12/16 01:05:45;;;;;;;;;;;-1.30;90.30;;;;;;5032891;28;19952;-76
2022/12/16 01:08:10;;;;;;;;;;;-1.20;90.40;;;;;;5031365;28;19987;-76
2022/12/16 01:10:36;;;;;;;;;;;-1.20;90.30;;;;;;5034203;28;19928;-76
2022/12/16 01:13:01;;;;;;;;;;;-1.20;90.30;;;;;;5035614;28;19928;-75
2022/12/16 01:15:27;;;;;;;;;;;-1.30;90.30;;;;;;5019166;28;20391;-76
2022/12/16 01:17:52;;;;;;;;;;;-1.20;90.30;;;;;;5037160;28;19927;-76
2022/12/16 01:20:17;;;;;;;;;;;-1.20;90.30;;;;;;5032485;28;20370;-76
2022/12/16 01:22:43;;;;;;;;;;;-1.20;90.30;;;;;;5038840;28;19921;-77
2022/12/16 01:25:09;;;;;;;;;;;-1.20;90.30;;;;;;5019242;28;19927;-76
2022/12/16 01:27:35;;;;;;;;;;;-1.20;90.30;;;;;;5029511;28;19925;-76
2022/12/16 01:30:00;;;;;;;;;;;-1.20;90.30;;;;;;5032960;28;20035;-76
2022/12/16 01:32:26;;;;;;;;;;;-1.20;90.30;;;;;;5032845;28;19925;-76
2022/12/16 01:34:51;;;;;;;;;;;-1.20;90.30;;;;;;5036255;28;20041;-76
2022/12/16 01:37:17;;;;;;;;;;;-1.20;90.30;;;;;;5033126;28;20554;-76
2022/12/16 01:39:42;;;;;;;;;;;-1.20;90.30;;;;;;5037212;28;20600;-76
2022/12/16 01:42:14;;;;;;;;;;;-1.20;90.30;;;;;;5020323;28;19954;-75
2022/12/16 01:44:41;;;;;;;;;;;-1.20;90.30;;;;;;5034359;28;19983;-75
2022/12/16 01:47:08;;;;;;;;;;;-1.20;90.30;;;;;;5033959;28;19924;-75
2022/12/16 01:49:33;;;;;;;;;;;-1.20;90.30;;;;;;5017629;28;19930;-76
2022/12/16 01:52:00;;;;;;;;;;;-1.20;90.30;;;;;;5046581;28;19921;-76
2022/12/16 01:54:30;;;;;;;;;;;-1.20;90.30;;;;;;5028497;28;19935;-76
2022/12/16 01:56:56;;;;;;;;;;;-1.20;90.30;;;;;;5035479;28;20018;-76
2022/12/16 01:59:22;;;;;;;;;;;-1.20;90.30;;;;;;5033012;28;19963;-76
2022/12/16 02:01:47;;;;;;;;;;;-1.20;90.30;;;;;;5033316;28;20013;-76
2022/12/16 02:04:12;;;;;;;;;;;-1.20;90.30;;;;;;5032980;28;20381;-76
2022/12/16 02:06:38;;;;;;;;;;;-1.20;90.30;;;;;;5031146;28;19936;-76
2022/12/16 02:09:05;;;;;;;;;;;-1.20;90.30;;;;;;5031673;28;20314;-76
2022/12/16 02:11:48;;;;;;;;;;;-1.20;90.30;;;;;;5044471;28;19928;-76
2022/12/16 02:14:17;;;;;;;;;;;-1.20;90.30;;;;;;5031933;28;19959;-75
2022/12/16 02:17:01;;;;;;;;;;;-1.20;90.30;;;;;;5047396;28;19925;-76
2022/12/16 02:19:29;;;;;;;;;;;-1.20;90.30;;;;;;5029455;28;19970;-76
2022/12/16 02:21:55;;;;;;;;;;;-1.20;90.30;;;;;;5032373;28;20385;-76
2022/12/16 02:24:20;;;;;;;;;;;-1.20;90.30;;;;;;5035592;28;20449;-76
2022/12/16 02:26:56;;;;;;;;;;;-1.20;90.30;;;;;;5036384;28;20442;-75
2022/12/16 02:29:24;;;;;;;;;;;-1.20;90.30;;;;;;5033800;28;20610;-76
2022/12/16 02:32:01;;;;;;;;;;;-1.20;90.30;;;;;;5032630;28;19929;-76
2022/12/16 02:34:27;;;;;;;;;;;-1.20;90.30;;;;;;5030754;28;19947;-76
2022/12/16 02:36:52;;;;;;;;;;;-1.10;90.30;;;;;;5033360;28;19920;-76
2022/12/16 02:39:19;;;;;;;;;;;-1.20;90.30;;;;;;5032912;28;19974;-76
2022/12/16 02:41:51;;;;;;;;;;;-1.20;90.30;;;;;;5034061;28;19924;-76
2022/12/16 02:44:16;;;;;;;;;;;-1.20;90.30;;;;;;5032356;28;19928;-75
2022/12/16 02:46:42;;;;;;;;;;;-1.20;90.30;;;;;;5016907;28;19920;-76
2022/12/16 02:49:29;;;;;;;;;;;-1.20;90.30;;;;;;5018388;28;19921;-75
2022/12/16 02:51:55;;;;;;;;;;;-1.20;90.30;;;;;;5019522;28;19971;-76
2022/12/16 02:54:20;;;;;;;;;;;-1.20;90.30;;;;;;5029650;28;19929;-76
2022/12/16 02:56:50;;;;;;;;;;;-1.20;90.30;;;;;;5032925;28;19967;-74
2022/12/16 02:59:23;;;;;;;;;;;-1.20;90.30;;;;;;5011855;28;20436;-76
2022/12/16 03:02:00;;;;;;;;;;;-1.20;90.30;;;;;;5031588;28;19921;-76
2022/12/16 03:04:30;;;;;;;;;;;-1.20;90.30;;;;;;5050598;28;20010;-77
2022/12/16 03:06:56;;;;;;;;;;;-1.30;90.20;;;;;;5035954;28;19917;-76
2022/12/16 03:09:23;;;;;;;;;;;-1.30;90.30;;;;;;5035451;28;19940;-76
2022/12/16 03:11:48;;;;;;;;;;;-1.30;90.30;;;;;;5035143;28;20011;-76
2022/12/16 03:14:14;;;;;;;;;;;-1.20;90.30;;;;;;5035845;28;20020;-76
2022/12/16 03:16:40;;;;;;;;;;;-1.30;90.20;;;;;;5020851;28;19920;-76
2022/12/16 03:19:06;;;;;;;;;;;-1.30;90.30;;;;;;5036282;28;19990;-76
2022/12/16 03:21:55;;;;;;;;;;;-1.30;90.30;;;;;;5015980;28;20007;-76
2022/12/16 03:24:20;;;;;;;;;;;-1.30;90.30;;;;;;5025992;28;20019;-76
2022/12/16 03:26:46;;;;;;;;;;;-1.30;90.20;;;;;;5036661;28;19935;-76
2022/12/16 03:29:32;;;;;;;;;;;-1.30;90.30;;;;;;5035015;28;20427;-75
2022/12/16 03:31:57;;;;;;;;;;;-1.30;90.20;;;;;;5034240;28;19921;-75
2022/12/16 03:34:26;;;;;;;;;;;-1.40;90.20;;;;;;5034089;28;19921;-75
2022/12/16 03:36:52;;;;;;;;;;;-1.40;90.30;;;;;;5026919;28;19920;-76
2022/12/16 03:39:18;;;;;;;;;;;-1.40;90.20;;;;;;5038748;28;19928;-76
2022/12/16 03:41:44;;;;;;;;;;;-1.40;90.30;;;;;;5040266;28;20590;-76
2022/12/16 03:44:09;;;;;;;;;;;-1.50;90.20;;;;;;5036899;28;19925;-75
2022/12/16 03:46:35;;;;;;;;;;;-1.50;90.20;;;;;;5037747;28;19978;-75
2022/12/16 03:49:00;;;;;;;;;;;-1.50;90.20;;;;;;5032161;28;19928;-75
2022/12/16 03:51:26;;;;;;;;;;;-1.60;90.20;;;;;;5037128;28;20422;-76
2022/12/16 03:53:51;;;;;;;;;;;-1.60;90.20;;;;;;5038061;28;19929;-76
2022/12/16 03:56:17;;;;;;;;;;;-1.70;90.20;;;;;;5033883;28;19920;-76
2022/12/16 03:58:42;;;;;;;;;;;-1.70;90.20;;;;;;5038067;28;19936;-76
2022/12/16 04:01:08;;;;;;;;;;;-1.70;90.20;;;;;;5049312;28;20016;-76
2022/12/16 04:03:34;;;;;;;;;;;-1.80;90.20;;;;;;5031714;28;19932;-76
2022/12/16 04:05:59;;;;;;;;;;;-1.80;90.20;;;;;;5034497;28;19959;-75
2022/12/16 04:08:25;;;;;;;;;;;-1.80;90.20;;;;;;5033128;28;19921;-75
2022/12/16 04:24:31;;;;;;;;;;;-2.00;90.20;;;;;;5046737;28;19939;-76
2022/12/16 04:32:25;;;;;;;;;;;-2.20;90.20;;;;;;5031646;28;19984;-76
2022/12/16 04:34:51;;;;;;;;;;;-2.20;90.20;;;;;;5038754;28;19924;-76
